createdAt,value
2022-07-30T00:00:30.983Z,101598.66
2022-07-30T00:02:58.949Z,101597.78
2022-07-30T00:05:27.054Z,101590.66
2022-07-30T00:07:56.373Z,101595.94
2022-07-30T00:10:24.481Z,101587.69
2022-07-30T00:12:52.570Z,101595.94
2022-07-30T00:15:20.710Z,101594.69
2022-07-30T00:17:49.168Z,101592.97
2022-07-30T00:20:18.474Z,101590.72
2022-07-30T00:22:47.078Z,101595.13
2022-07-30T00:25:16.649Z,101595.28
2022-07-30T00:27:50.454Z,101587.16
2022-07-30T00:30:18.487Z,101585.88
2022-07-30T00:32:46.457Z,101581.59
2022-07-30T00:35:15.082Z,101581.47
2022-07-30T00:37:43.020Z,101581.88
2022-07-30T00:40:11.553Z,101580.88
2022-07-30T00:42:42.928Z,101586.03
2022-07-30T00:45:12.560Z,101584.88
2022-07-30T00:47:41.291Z,101578.63
2022-07-30T00:50:11.922Z,101585.16
2022-07-30T00:52:41.372Z,101589.13
2022-07-30T00:55:12.597Z,101583.47
2022-07-30T00:57:42.872Z,101583.56
2022-07-30T01:00:14.450Z,101585.25
2022-07-30T01:02:42.544Z,101585.41
2022-07-30T01:05:11.135Z,101583.56
2022-07-30T01:07:39.140Z,101578.84
2022-07-30T01:10:08.803Z,101580.78
2022-07-30T01:12:38.265Z,101575.53
2022-07-30T01:15:09.717Z,101570.94
2022-07-30T01:17:38.151Z,101563.38
2022-07-30T01:20:08.144Z,101567.47
2022-07-30T01:23:03.709Z,101561.19
2022-07-30T01:25:59.580Z,101564.78
2022-07-30T01:28:33.391Z,101560.63
2022-07-30T01:31:02.840Z,101555.66
2022-07-30T01:33:32.707Z,101563.31
2022-07-30T01:36:02.463Z,101557.09
2022-07-30T01:38:35.215Z,101556.81
2022-07-30T01:41:07.165Z,101556.09
2022-07-30T01:43:36.219Z,101555.97
2022-07-30T01:46:05.365Z,101554.09
2022-07-30T01:48:37.492Z,101555.41
2022-07-30T01:51:07.176Z,101556.38
2022-07-30T01:53:38.920Z,101553.44
2022-07-30T01:56:11.433Z,101556.88
2022-07-30T01:58:41.254Z,101561.13
2022-07-30T02:01:09.302Z,101554.00
2022-07-30T02:03:37.419Z,101552.28
2022-07-30T02:06:12.228Z,101555.31
2022-07-30T02:08:42.544Z,101552.63
2022-07-30T02:11:14.208Z,101547.94
2022-07-30T02:13:48.522Z,101550.75
2022-07-30T02:16:21.173Z,101548.38
2022-07-30T02:18:58.375Z,101541.38
2022-07-30T02:21:36.642Z,101542.97
2022-07-30T02:24:09.193Z,101541.00
2022-07-30T02:26:40.133Z,101542.44
2022-07-30T02:29:11.364Z,101539.63
2022-07-30T02:31:41.869Z,101550.56
2022-07-30T02:34:12.120Z,101548.53
2022-07-30T02:36:43.374Z,101538.44
2022-07-30T02:39:14.275Z,101548.69
2022-07-30T02:41:49.727Z,101544.03
2022-07-30T02:44:20.049Z,101548.63
2022-07-30T02:46:50.194Z,101549.69
2022-07-30T02:49:20.563Z,101551.69
2022-07-30T02:51:48.753Z,101555.41
2022-07-30T02:54:19.909Z,101555.41
2022-07-30T02:56:51.974Z,101556.38
2022-07-30T02:59:21.993Z,101558.69
2022-07-30T03:01:50.478Z,101563.09
2022-07-30T03:04:22.076Z,101552.41
2022-07-30T03:06:51.095Z,101550.81
2022-07-30T03:09:19.721Z,101559.59
2022-07-30T03:11:52.779Z,101556.16
2022-07-30T03:14:21.052Z,101548.19
2022-07-30T03:16:57.131Z,101543.34
2022-07-30T03:19:31.048Z,101545.03
2022-07-30T03:22:02.410Z,101539.47
2022-07-30T03:24:32.821Z,101543.91
2022-07-30T03:27:03.956Z,101544.88
2022-07-30T03:29:33.986Z,101540.72
2022-07-30T03:32:02.729Z,101548.59
2022-07-30T03:34:35.104Z,101551.56
2022-07-30T03:37:06.413Z,101545.69
2022-07-30T03:39:36.048Z,101542.13
2022-07-30T03:42:07.748Z,101545.22
2022-07-30T03:44:36.498Z,101546.28
2022-07-30T03:47:06.428Z,101549.25
2022-07-30T03:49:34.957Z,101540.41
2022-07-30T03:52:04.501Z,101541.38
2022-07-30T03:54:34.405Z,101541.81
2022-07-30T03:57:03.219Z,101541.53
2022-07-30T03:59:34.395Z,101542.13
2022-07-30T04:02:07.156Z,101543.41
2022-07-30T04:04:35.755Z,101544.72
2022-07-30T04:07:03.972Z,101547.81
2022-07-30T04:09:32.081Z,101538.97
2022-07-30T04:12:00.038Z,101535.53
2022-07-30T04:14:28.221Z,101533.81
2022-07-30T04:17:04.072Z,101528.56
2022-07-30T04:19:37.823Z,101530.53
2022-07-30T04:22:06.784Z,101541.72
2022-07-30T04:24:36.004Z,101537.78
2022-07-30T04:27:04.835Z,101551.31
2022-07-30T04:29:33.268Z,101551.44
2022-07-30T04:32:02.888Z,101553.00
2022-07-30T04:34:30.786Z,101550.84
2022-07-30T04:36:59.269Z,101551.38
2022-07-30T04:39:28.574Z,101551.22
2022-07-30T04:41:56.570Z,101554.19
2022-07-30T04:44:24.608Z,101557.09
2022-07-30T04:46:52.563Z,101560.53
2022-07-30T04:49:23.632Z,101557.09
2022-07-30T04:51:53.014Z,101559.69
2022-07-30T04:54:24.182Z,101560.28
2022-07-30T04:56:55.938Z,101556.97
2022-07-30T04:59:26.479Z,101560.16
2022-07-30T05:01:57.873Z,101574.91
2022-07-30T05:04:29.293Z,101566.22
2022-07-30T05:06:59.371Z,101564.47
2022-07-30T05:09:28.358Z,101555.38
2022-07-30T05:11:57.612Z,101562.19
2022-07-30T05:14:26.225Z,101563.09
2022-07-30T05:16:55.903Z,101562.84
2022-07-30T05:19:25.224Z,101564.69
2022-07-30T05:21:54.702Z,101567.81
2022-07-30T05:24:23.163Z,101573.81
2022-07-30T05:26:51.232Z,101569.56
2022-07-30T05:29:20.379Z,101576.56
2022-07-30T05:31:49.141Z,101578.16
2022-07-30T05:34:17.790Z,101574.19
2022-07-30T05:36:46.433Z,101570.25
2022-07-30T05:39:16.861Z,101570.75
2022-07-30T05:41:44.859Z,101575.59
2022-07-30T05:44:13.061Z,101574.25
2022-07-30T05:46:41.325Z,101572.22
2022-07-30T05:49:09.567Z,101571.16
2022-07-30T05:51:37.768Z,101575.44
2022-07-30T05:54:05.809Z,101571.88
2022-07-30T05:56:36.075Z,101576.19
2022-07-30T05:59:04.311Z,101574.50
2022-07-30T06:01:32.290Z,101571.88
2022-07-30T06:04:01.410Z,101573.91
2022-07-30T06:06:29.407Z,101577.25
2022-07-30T06:08:57.382Z,101578.91
2022-07-30T06:11:25.350Z,101573.47
2022-07-30T06:13:54.792Z,101572.09
2022-07-30T06:16:22.851Z,101575.63
2022-07-30T06:18:51.145Z,101570.78
2022-07-30T06:21:19.214Z,101579.53
2022-07-30T06:23:47.087Z,101582.41
2022-07-30T06:26:15.216Z,101582.16
2022-07-30T06:28:43.209Z,101583.06
2022-07-30T06:31:12.616Z,101583.84
2022-07-30T06:33:40.709Z,101590.28
2022-07-30T06:36:09.038Z,101592.97
2022-07-30T06:38:45.108Z,101597.81
2022-07-30T06:41:13.268Z,101590.97
2022-07-30T06:43:41.208Z,101589.28
2022-07-30T06:46:09.304Z,101601.31
2022-07-30T06:48:38.885Z,101592.06
2022-07-30T06:51:06.931Z,101591.69
2022-07-30T06:53:39.598Z,101594.97
2022-07-30T06:56:10.786Z,101590.69
2022-07-30T06:58:39.262Z,101587.69
2022-07-30T07:01:10.854Z,101599.84
2022-07-30T07:03:41.307Z,101597.28
2022-07-30T07:06:09.505Z,101599.56
2022-07-30T07:08:38.349Z,101599.84
2022-07-30T07:11:06.496Z,101599.84
2022-07-30T07:13:34.550Z,101603.41
2022-07-30T07:16:02.877Z,101602.63
2022-07-30T07:18:30.968Z,101595.47
2022-07-30T07:21:00.422Z,101594.28
2022-07-30T07:23:42.057Z,101598.66
2022-07-30T07:26:11.857Z,101591.22
2022-07-30T07:28:41.476Z,101596.72
2022-07-30T07:31:10.361Z,101581.25
2022-07-30T07:33:39.663Z,101585.63
2022-07-30T07:36:09.215Z,101590.16
2022-07-30T07:38:37.865Z,101581.69
2022-07-30T07:41:06.583Z,101578.41
2022-07-30T07:43:34.490Z,101583.28
2022-07-30T07:46:02.577Z,101577.53
2022-07-30T07:48:30.958Z,101584.53
2022-07-30T07:51:00.492Z,101575.78
2022-07-30T07:53:30.374Z,101579.59
2022-07-30T07:55:58.895Z,101588.88
2022-07-30T07:58:28.118Z,101594.34
2022-07-30T08:00:57.598Z,101595.16
2022-07-30T08:03:25.584Z,101597.44
2022-07-30T08:05:58.217Z,101599.94
2022-07-30T08:08:36.703Z,101596.69
2022-07-30T08:11:05.722Z,101595.59
2022-07-30T08:13:51.422Z,101593.69
2022-07-30T08:16:21.191Z,101593.06
2022-07-30T08:18:49.162Z,101594.13
2022-07-30T08:21:17.097Z,101590.72
2022-07-30T08:23:46.488Z,101586.50
2022-07-30T08:26:14.444Z,101586.28
2022-07-30T08:28:43.150Z,101589.66
2022-07-30T08:31:11.501Z,101586.47
2022-07-30T08:33:39.479Z,101582.31
2022-07-30T08:36:09.732Z,101585.25
2022-07-30T08:38:39.138Z,101582.06
2022-07-30T08:41:08.504Z,101594.72
2022-07-30T08:43:37.997Z,101596.25
2022-07-30T08:46:09.910Z,101591.31
2022-07-30T08:48:38.619Z,101593.50
2022-07-30T08:51:07.198Z,101589.66
2022-07-30T08:53:36.473Z,101598.09
2022-07-30T08:56:07.008Z,101604.22
2022-07-30T08:58:36.604Z,101598.63
2022-07-30T09:01:06.738Z,101598.84
2022-07-30T09:03:35.202Z,101598.56
2022-07-30T09:06:04.876Z,101611.13
2022-07-30T09:08:33.581Z,101596.50
2022-07-30T09:11:01.596Z,101605.88
2022-07-30T09:13:31.440Z,101614.50
2022-07-30T09:16:00.751Z,101614.13
2022-07-30T09:18:33.424Z,101614.56
2022-07-30T09:21:03.255Z,101611.44
2022-07-30T09:23:31.187Z,101617.19
2022-07-30T09:26:00.945Z,101609.06
2022-07-30T09:28:31.285Z,101617.72
2022-07-30T09:31:01.812Z,101618.06
2022-07-30T09:33:35.365Z,101619.06
2022-07-30T09:36:04.904Z,101615.09
2022-07-30T09:38:44.738Z,101619.97
2022-07-30T09:41:29.298Z,101626.78
2022-07-30T09:44:05.607Z,101620.75
2022-07-30T09:46:47.914Z,101634.00
2022-07-30T09:49:17.686Z,101632.94
2022-07-30T09:51:54.793Z,101635.97
2022-07-30T09:54:26.006Z,101626.59
2022-07-30T09:57:23.184Z,101632.53
2022-07-30T09:59:56.860Z,101636.38
2022-07-30T10:02:35.339Z,101636.31
2022-07-30T10:05:15.364Z,101635.84
2022-07-30T10:07:52.288Z,101627.81
2022-07-30T10:10:25.225Z,101636.78
2022-07-30T10:12:58.157Z,101627.22
2022-07-30T10:15:29.790Z,101635.03
2022-07-30T10:18:00.564Z,101635.66
2022-07-30T10:20:29.456Z,101636.38
2022-07-30T10:22:58.285Z,101640.91
2022-07-30T10:25:28.372Z,101637.63
2022-07-30T10:27:58.067Z,101628.75
2022-07-30T10:30:29.371Z,101640.19
2022-07-30T10:33:00.345Z,101635.19
2022-07-30T10:35:35.010Z,101636.09
2022-07-30T10:38:13.470Z,101638.84
2022-07-30T10:40:47.901Z,101636.66
2022-07-30T10:43:36.292Z,101635.19
2022-07-30T10:46:19.967Z,101633.34
2022-07-30T10:48:52.805Z,101639.34
2022-07-30T10:51:25.430Z,101641.97
2022-07-30T10:54:02.621Z,101644.03
2022-07-30T10:56:30.757Z,101650.78
2022-07-30T10:59:04.145Z,101644.34
2022-07-30T11:02:08.369Z,101645.41
2022-07-30T11:04:37.667Z,101656.41
2022-07-30T11:07:31.469Z,101648.38
2022-07-30T11:10:05.321Z,101646.28
2022-07-30T11:12:58.433Z,101652.78
2022-07-30T11:15:54.933Z,101646.34
2022-07-30T11:18:25.028Z,101652.31
2022-07-30T11:21:21.394Z,101655.38
2022-07-30T11:23:54.733Z,101648.41
2022-07-30T11:26:53.250Z,101648.91
2022-07-30T11:29:50.783Z,101648.75
2022-07-30T11:32:29.778Z,101650.13
2022-07-30T11:35:18.750Z,101647.91
2022-07-30T11:38:13.035Z,101640.03
2022-07-30T11:41:18.986Z,101643.63
2022-07-30T11:43:47.098Z,101635.78
2022-07-30T11:46:18.017Z,101635.91
2022-07-30T11:49:00.114Z,101639.69
2022-07-30T11:51:28.626Z,101630.94
2022-07-30T11:54:03.941Z,101641.19
2022-07-30T11:56:32.677Z,101629.25
2022-07-30T11:59:04.637Z,101636.25
2022-07-30T12:01:33.504Z,101627.53
2022-07-30T12:04:05.875Z,101631.97
2022-07-30T12:06:36.577Z,101621.72
2022-07-30T12:09:04.534Z,101632.47
2022-07-30T12:11:33.939Z,101623.06
2022-07-30T12:14:02.812Z,101626.81
2022-07-30T12:16:31.890Z,101624.88
2022-07-30T12:19:05.479Z,101624.41
2022-07-30T12:21:34.234Z,101623.75
2022-07-30T12:24:04.415Z,101623.47
2022-07-30T12:26:34.378Z,101623.41
2022-07-30T12:29:05.222Z,101617.69
2022-07-30T12:31:38.510Z,101619.97
2022-07-30T12:34:22.103Z,101615.38
2022-07-30T12:36:50.584Z,101610.59
2022-07-30T12:39:22.907Z,101610.91
2022-07-30T12:41:52.641Z,101607.09
2022-07-30T12:44:35.941Z,101612.34
2022-07-30T12:47:05.179Z,101598.22
2022-07-30T12:49:36.553Z,101599.94
2022-07-30T12:52:28.420Z,101607.59
2022-07-30T12:55:08.724Z,101596.97
2022-07-30T12:58:07.142Z,101607.81
2022-07-30T13:00:52.084Z,101604.44
2022-07-30T13:03:23.895Z,101593.91
2022-07-30T13:05:55.418Z,101585.00
2022-07-30T13:08:46.657Z,101585.75
2022-07-30T13:11:15.077Z,101582.84
2022-07-30T13:13:43.133Z,101581.72
2022-07-30T13:16:11.205Z,101584.41
2022-07-30T13:18:39.415Z,101586.31
2022-07-30T13:21:10.212Z,101584.53
2022-07-30T13:23:39.263Z,101581.91
2022-07-30T13:26:08.455Z,101587.59
2022-07-30T13:28:36.479Z,101577.44
2022-07-30T13:31:04.775Z,101577.53
2022-07-30T13:33:32.871Z,101571.19
2022-07-30T13:36:00.946Z,101576.50
2022-07-30T13:38:30.403Z,101573.47
2022-07-30T13:41:02.392Z,101576.19
2022-07-30T13:43:33.631Z,101573.22
2022-07-30T13:46:03.038Z,101564.50
2022-07-30T13:48:31.096Z,101562.91
2022-07-30T13:50:59.040Z,101557.75
2022-07-30T13:53:26.932Z,101551.53
2022-07-30T13:55:56.240Z,101552.25
2022-07-30T13:58:24.202Z,101552.63
2022-07-30T14:00:52.255Z,101557.69
2022-07-30T14:03:20.287Z,101552.16
2022-07-30T14:05:49.203Z,101561.03
2022-07-30T14:08:17.138Z,101551.19
2022-07-30T14:10:45.182Z,101545.75
2022-07-30T14:13:20.976Z,101540.03
2022-07-30T14:15:49.705Z,101550.19
2022-07-30T14:18:17.785Z,101557.91
2022-07-30T14:20:48.733Z,101546.59
2022-07-30T14:23:17.334Z,101549.09
2022-07-30T14:25:45.273Z,101549.69
2022-07-30T14:28:14.657Z,101545.78
2022-07-30T14:30:42.717Z,101545.50
2022-07-30T14:33:10.915Z,101546.72
2022-07-30T14:35:38.784Z,101546.28
2022-07-30T14:38:06.790Z,101543.22
2022-07-30T14:40:35.106Z,101546.97
2022-07-30T14:43:03.051Z,101548.56
2022-07-30T14:45:33.225Z,101544.91
2022-07-30T14:48:01.136Z,101543.31
2022-07-30T14:50:30.752Z,101542.09
2022-07-30T14:52:58.793Z,101542.06
2022-07-30T14:55:27.014Z,101538.28
2022-07-30T14:57:55.025Z,101550.28
2022-07-30T15:00:24.447Z,101545.94
2022-07-30T15:02:53.835Z,101555.09
2022-07-30T15:05:22.003Z,101555.69
2022-07-30T15:07:50.010Z,101562.13
2022-07-30T15:10:17.995Z,101552.72
2022-07-30T15:12:45.928Z,101554.78
2022-07-30T15:15:16.317Z,101554.00
2022-07-30T15:17:44.163Z,101552.59
2022-07-30T15:20:14.389Z,101559.94
2022-07-30T15:22:42.563Z,101564.56
2022-07-30T15:25:10.561Z,101556.16
2022-07-30T15:27:38.517Z,101564.94
2022-07-30T15:30:07.335Z,101558.28
2022-07-30T15:32:35.235Z,101562.38
2022-07-30T15:35:03.240Z,101565.25
2022-07-30T15:37:32.717Z,101563.84
2022-07-30T15:40:00.711Z,101574.13
2022-07-30T15:42:29.783Z,101564.72
2022-07-30T15:45:15.844Z,101570.34
2022-07-30T15:47:45.140Z,101561.69
2022-07-30T15:50:13.407Z,101566.66
2022-07-30T15:52:42.856Z,101562.13
2022-07-30T15:55:11.672Z,101566.53
2022-07-30T15:57:40.630Z,101564.38
2022-07-30T16:00:09.917Z,101563.59
2022-07-30T16:02:38.370Z,101555.84
2022-07-30T16:05:11.805Z,101556.97
2022-07-30T16:07:42.954Z,101550.56
2022-07-30T16:10:11.941Z,101556.72
2022-07-30T16:12:40.225Z,101554.66
2022-07-30T16:15:09.688Z,101545.19
2022-07-30T16:17:37.878Z,101547.94
2022-07-30T16:20:06.953Z,101542.84
2022-07-30T16:22:34.999Z,101540.81
2022-07-30T16:25:04.520Z,101548.63
2022-07-30T16:27:32.429Z,101549.78
2022-07-30T16:30:00.335Z,101556.59
2022-07-30T16:32:28.425Z,101550.75
2022-07-30T16:34:56.293Z,101551.84
2022-07-30T16:37:24.184Z,101555.44
2022-07-30T16:39:54.569Z,101557.38
2022-07-30T16:42:23.868Z,101561.22
2022-07-30T16:44:51.785Z,101553.22
2022-07-30T16:47:19.697Z,101558.28
2022-07-30T16:49:47.590Z,101557.94
2022-07-30T16:52:16.013Z,101549.34
2022-07-30T16:54:43.944Z,101557.25
2022-07-30T16:57:11.969Z,101568.19
2022-07-30T16:59:43.643Z,101556.56
2022-07-30T17:02:12.306Z,101569.28
2022-07-30T17:04:41.731Z,101563.13
2022-07-30T17:07:09.808Z,101559.41
2022-07-30T17:09:37.814Z,101560.47
2022-07-30T17:12:12.252Z,101564.97
2022-07-30T17:14:42.798Z,101565.47
2022-07-30T17:17:14.409Z,101564.63
2022-07-30T17:19:43.126Z,101573.69
2022-07-30T17:22:11.250Z,101563.28
2022-07-30T17:24:39.240Z,101568.25
2022-07-30T17:27:07.305Z,101569.81
2022-07-30T17:29:48.381Z,101573.25
2022-07-30T17:32:20.262Z,101572.59
2022-07-30T17:34:48.910Z,101572.72
2022-07-30T17:37:17.473Z,101574.63
2022-07-30T17:40:27.064Z,101577.06
2022-07-30T17:42:33.569Z,101583.19
2022-07-30T17:45:02.481Z,101586.09
2022-07-30T17:47:31.819Z,101579.59
2022-07-30T17:49:59.930Z,101583.69
2022-07-30T17:52:27.971Z,101581.13
2022-07-30T17:54:56.042Z,101572.94
2022-07-30T17:57:23.999Z,101585.59
2022-07-30T17:59:52.071Z,101579.41
2022-07-30T18:02:20.063Z,101590.34
2022-07-30T18:04:56.632Z,101591.38
2022-07-30T18:07:24.866Z,101598.53
2022-07-30T18:09:52.862Z,101595.28
2022-07-30T18:12:21.516Z,101598.69
2022-07-30T18:14:55.458Z,101606.19
2022-07-30T18:17:23.527Z,101598.16
2022-07-30T18:19:51.498Z,101596.78
2022-07-30T18:22:28.185Z,101601.06
2022-07-30T18:24:57.774Z,101598.69
2022-07-30T18:27:26.483Z,101603.97
2022-07-30T18:29:54.533Z,101601.72
2022-07-30T18:32:23.653Z,101602.59
2022-07-30T18:34:51.908Z,101605.31
2022-07-30T18:37:21.362Z,101603.38
2022-07-30T18:39:49.298Z,101609.19
2022-07-30T18:42:17.211Z,101613.25
2022-07-30T18:44:45.105Z,101610.72
2022-07-30T18:47:13.484Z,101607.59
2022-07-30T18:49:41.483Z,101611.53
2022-07-30T18:52:09.405Z,101620.03
2022-07-30T18:54:39.519Z,101606.72
2022-07-30T18:57:12.675Z,101612.53
2022-07-30T18:59:43.145Z,101611.50
2022-07-30T19:02:11.431Z,101611.31
2022-07-30T19:04:39.550Z,101613.34
2022-07-30T19:07:08.450Z,101615.22
2022-07-30T19:09:36.692Z,101619.94
2022-07-30T19:12:07.005Z,101616.66
2022-07-30T19:14:35.525Z,101625.91
2022-07-30T19:17:03.857Z,101619.22
2022-07-30T19:19:42.632Z,101624.03
2022-07-30T19:22:11.152Z,101630.81
2022-07-30T19:24:39.957Z,101632.78
2022-07-30T19:27:13.986Z,101638.22
2022-07-30T19:29:43.558Z,101632.88
2022-07-30T19:32:12.117Z,101636.38
2022-07-30T19:34:41.216Z,101642.34
2022-07-30T19:37:10.971Z,101647.53
2022-07-30T19:40:05.247Z,101639.00
2022-07-30T19:42:31.849Z,101644.94
2022-07-30T19:45:11.125Z,101650.28
2022-07-30T19:47:42.474Z,101649.47
2022-07-30T19:50:12.038Z,101652.97
2022-07-30T19:52:51.066Z,101656.03
2022-07-30T19:55:35.479Z,101654.38
2022-07-30T19:58:16.202Z,101664.91
2022-07-30T20:00:52.766Z,101661.97
2022-07-30T20:03:25.713Z,101669.75
2022-07-30T20:08:30.055Z,101681.97
2022-07-30T20:10:59.364Z,101683.88
2022-07-30T20:13:45.538Z,101687.19
2022-07-30T20:16:14.580Z,101685.22
2022-07-30T20:18:44.436Z,101688.84
2022-07-30T20:21:15.324Z,101695.41
2022-07-30T20:23:44.448Z,101698.28
2022-07-30T20:26:15.269Z,101698.91
2022-07-30T20:28:52.525Z,101690.78
2022-07-30T20:31:21.418Z,101698.50
2022-07-30T20:33:50.866Z,101696.66
2022-07-30T20:36:19.250Z,101697.69
2022-07-30T20:38:47.878Z,101699.69
2022-07-30T20:41:16.153Z,101697.50
2022-07-30T20:43:52.622Z,101695.53
2022-07-30T20:46:23.780Z,101694.69
2022-07-30T20:48:53.018Z,101702.69
2022-07-30T20:51:21.648Z,101707.25
2022-07-30T20:54:01.959Z,101698.84
2022-07-30T20:56:30.419Z,101692.41
2022-07-30T20:58:59.918Z,101698.84
2022-07-30T21:01:30.746Z,101696.41
2022-07-30T21:04:02.031Z,101696.28
2022-07-30T21:06:31.353Z,101696.28
2022-07-30T21:09:02.988Z,101691.25
2022-07-30T21:11:31.442Z,101692.69
2022-07-30T21:14:05.834Z,101686.84
2022-07-30T21:16:40.770Z,101689.88
2022-07-30T21:19:12.933Z,101692.59
2022-07-30T21:21:48.225Z,101689.69
2022-07-30T21:24:21.080Z,101691.69
2022-07-30T21:26:52.183Z,101696.84
2022-07-30T21:29:21.730Z,101699.97
2022-07-30T21:32:01.514Z,101698.41
2022-07-30T21:34:40.384Z,101703.41
2022-07-30T21:37:10.608Z,101697.13
2022-07-30T21:39:43.412Z,101703.41
2022-07-30T21:42:11.601Z,101700.56
2022-07-30T21:44:41.198Z,101700.13
2022-07-30T21:47:10.876Z,101699.25
2022-07-30T21:49:39.636Z,101696.25
2022-07-30T21:52:09.036Z,101696.72
2022-07-30T21:54:48.166Z,101698.38
2022-07-30T21:57:26.295Z,101700.78
2022-07-30T21:59:59.593Z,101700.38
2022-07-30T22:02:28.265Z,101698.09
2022-07-30T22:04:56.461Z,101710.94
2022-07-30T22:07:27.190Z,101710.78
2022-07-30T22:09:55.313Z,101703.81
2022-07-30T22:12:28.880Z,101703.66
2022-07-30T22:14:57.395Z,101707.06
2022-07-30T22:17:37.315Z,101708.78
2022-07-30T22:20:15.084Z,101705.63
2022-07-30T22:22:43.102Z,101704.03
2022-07-30T22:25:11.863Z,101702.88
2022-07-30T22:27:55.989Z,101706.59
2022-07-30T22:30:26.702Z,101703.47
2022-07-30T22:33:07.148Z,101707.00
2022-07-30T22:35:35.400Z,101697.44
2022-07-30T22:38:04.014Z,101704.84
2022-07-30T22:40:32.585Z,101705.72
2022-07-30T22:43:04.250Z,101693.59
2022-07-30T22:45:48.101Z,101696.00
2022-07-30T22:48:20.620Z,101692.00
2022-07-30T22:50:55.807Z,101689.53
2022-07-30T22:54:03.396Z,101686.13
2022-07-30T22:56:14.282Z,101691.69
2022-07-30T22:58:44.465Z,101686.69
2022-07-30T23:01:12.484Z,101679.38
2022-07-30T23:03:42.170Z,101679.09
2022-07-30T23:06:14.656Z,101677.69
2022-07-30T23:08:44.265Z,101679.53
2022-07-30T23:11:12.237Z,101677.84
2022-07-30T23:13:40.205Z,101682.19
2022-07-30T23:16:08.267Z,101675.34
2022-07-30T23:18:36.340Z,101677.22
2022-07-30T23:21:06.019Z,101673.16
2022-07-30T23:23:35.761Z,101675.88
2022-07-30T23:26:04.049Z,101678.09
2022-07-30T23:28:32.126Z,101676.78
2022-07-30T23:31:00.592Z,101670.06
2022-07-30T23:33:28.890Z,101666.53
2022-07-30T23:35:56.868Z,101671.81
2022-07-30T23:38:26.316Z,101678.75
2022-07-30T23:40:54.488Z,101667.06
2022-07-30T23:43:22.440Z,101668.19
2022-07-30T23:45:50.429Z,101674.16
2022-07-30T23:48:18.442Z,101674.41
2022-07-30T23:50:46.351Z,101672.88
2022-07-30T23:53:14.421Z,101662.91
2022-07-30T23:55:46.897Z,101669.19
2022-07-30T23:58:15.148Z,101672.03
